sensor_id;sensor_type;location;lat;lon;timestamp;P1;durP1;ratioP1;P2;durP2;ratioP2
55364;SDS011;41245;45.384;20.390;2023-07-09T00:00:18;19.38;;;7.43;;
55364;SDS011;41245;45.384;20.390;2023-07-09T00:02:44;16.77;;;6.63;;
55364;SDS011;41245;45.384;20.390;2023-07-09T00:05:11;19.88;;;7.45;;
55364;SDS011;41245;45.384;20.390;2023-07-09T00:07:38;12.25;;;6.68;;
55364;SDS011;41245;45.384;20.390;2023-07-09T00:10:06;14.10;;;7.15;;
55364;SDS011;41245;45.384;20.390;2023-07-09T00:12:38;13.00;;;6.28;;
55364;SDS011;41245;45.384;20.390;2023-07-09T00:15:04;11.57;;;6.38;;
55364;SDS011;41245;45.384;20.390;2023-07-09T00:17:31;16.00;;;6.05;;
55364;SDS011;41245;45.384;20.390;2023-07-09T00:19:58;18.63;;;6.28;;
55364;SDS011;41245;45.384;20.390;2023-07-09T00:22:25;14.75;;;6.53;;
55364;SDS011;41245;45.384;20.390;2023-07-09T00:24:52;16.38;;;6.50;;
55364;SDS011;41245;45.384;20.390;2023-07-09T00:27:22;13.48;;;5.20;;
55364;SDS011;41245;45.384;20.390;2023-07-09T00:29:49;13.63;;;6.18;;
55364;SDS011;41245;45.384;20.390;2023-07-09T00:32:18;11.38;;;5.53;;
55364;SDS011;41245;45.384;20.390;2023-07-09T00:34:50;10.70;;;5.60;;
55364;SDS011;41245;45.384;20.390;2023-07-09T00:37:17;14.95;;;5.97;;
55364;SDS011;41245;45.384;20.390;2023-07-09T00:39:44;20.08;;;6.30;;
55364;SDS011;41245;45.384;20.390;2023-07-09T00:42:14;8.85;;;5.13;;
55364;SDS011;41245;45.384;20.390;2023-07-09T00:44:42;13.00;;;5.55;;
55364;SDS011;41245;45.384;20.390;2023-07-09T00:50:52;15.65;;;5.22;;
55364;SDS011;41245;45.384;20.390;2023-07-09T00:53:04;13.70;;;5.10;;
55364;SDS011;41245;45.384;20.390;2023-07-09T00:55:35;19.13;;;4.47;;
55364;SDS011;41245;45.384;20.390;2023-07-09T00:58:03;21.40;;;4.90;;
55364;SDS011;41245;45.384;20.390;2023-07-09T01:00:32;10.10;;;5.20;;
55364;SDS011;41245;45.384;20.390;2023-07-09T01:03:00;7.07;;;5.05;;
55364;SDS011;41245;45.384;20.390;2023-07-09T01:05:28;12.68;;;5.32;;
55364;SDS011;41245;45.384;20.390;2023-07-09T01:07:54;9.35;;;4.60;;
55364;SDS011;41245;45.384;20.390;2023-07-09T01:10:23;12.98;;;4.70;;
55364;SDS011;41245;45.384;20.390;2023-07-09T01:12:49;7.82;;;5.28;;
55364;SDS011;41245;45.384;20.390;2023-07-09T01:15:17;11.93;;;4.45;;
55364;SDS011;41245;45.384;20.390;2023-07-09T01:17:43;5.60;;;4.07;;
55364;SDS011;41245;45.384;20.390;2023-07-09T01:20:14;6.85;;;4.60;;
55364;SDS011;41245;45.384;20.390;2023-07-09T01:22:41;16.15;;;5.10;;
55364;SDS011;41245;45.384;20.390;2023-07-09T01:25:07;9.52;;;4.15;;
55364;SDS011;41245;45.384;20.390;2023-07-09T01:27:39;19.05;;;5.82;;
55364;SDS011;41245;45.384;20.390;2023-07-09T01:30:10;11.18;;;5.30;;
55364;SDS011;41245;45.384;20.390;2023-07-09T01:32:39;15.77;;;5.85;;
55364;SDS011;41245;45.384;20.390;2023-07-09T01:35:10;9.13;;;5.22;;
55364;SDS011;41245;45.384;20.390;2023-07-09T01:37:37;12.18;;;4.55;;
55364;SDS011;41245;45.384;20.390;2023-07-09T01:40:04;10.80;;;5.10;;
55364;SDS011;41245;45.384;20.390;2023-07-09T01:42:31;9.50;;;4.55;;
55364;SDS011;41245;45.384;20.390;2023-07-09T01:44:57;14.40;;;4.80;;
55364;SDS011;41245;45.384;20.390;2023-07-09T01:47:23;11.15;;;5.38;;
55364;SDS011;41245;45.384;20.390;2023-07-09T01:49:50;22.30;;;5.60;;
55364;SDS011;41245;45.384;20.390;2023-07-09T01:52:22;19.40;;;4.43;;
55364;SDS011;41245;45.384;20.390;2023-07-09T01:54:48;15.10;;;5.40;;
55364;SDS011;41245;45.384;20.390;2023-07-09T01:57:25;9.60;;;4.97;;
55364;SDS011;41245;45.384;20.390;2023-07-09T01:59:58;10.80;;;4.80;;
55364;SDS011;41245;45.384;20.390;2023-07-09T02:02:24;9.02;;;5.63;;
55364;SDS011;41245;45.384;20.390;2023-07-09T02:04:52;11.18;;;5.65;;
55364;SDS011;41245;45.384;20.390;2023-07-09T02:07:18;11.50;;;4.95;;
55364;SDS011;41245;45.384;20.390;2023-07-09T02:09:45;23.83;;;5.38;;
55364;SDS011;41245;45.384;20.390;2023-07-09T02:12:11;13.82;;;4.72;;
55364;SDS011;41245;45.384;20.390;2023-07-09T02:14:38;14.13;;;4.97;;
55364;SDS011;41245;45.384;20.390;2023-07-09T02:17:04;15.13;;;4.85;;
55364;SDS011;41245;45.384;20.390;2023-07-09T02:19:30;11.80;;;4.78;;
55364;SDS011;41245;45.384;20.390;2023-07-09T02:21:57;16.38;;;5.43;;
55364;SDS011;41245;45.384;20.390;2023-07-09T02:24:23;11.82;;;5.22;;
55364;SDS011;41245;45.384;20.390;2023-07-09T02:26:50;11.82;;;5.05;;
55364;SDS011;41245;45.384;20.390;2023-07-09T02:29:17;16.17;;;5.97;;
55364;SDS011;41245;45.384;20.390;2023-07-09T02:31:44;16.05;;;5.40;;
55364;SDS011;41245;45.384;20.390;2023-07-09T02:34:10;15.98;;;6.00;;
55364;SDS011;41245;45.384;20.390;2023-07-09T02:36:36;9.52;;;5.07;;
55364;SDS011;41245;45.384;20.390;2023-07-09T02:39:02;10.75;;;5.20;;
55364;SDS011;41245;45.384;20.390;2023-07-09T02:41:28;18.45;;;6.55;;
55364;SDS011;41245;45.384;20.390;2023-07-09T02:43:54;11.57;;;5.53;;
55364;SDS011;41245;45.384;20.390;2023-07-09T02:46:20;10.55;;;5.30;;
55364;SDS011;41245;45.384;20.390;2023-07-09T02:48:46;14.80;;;5.63;;
55364;SDS011;41245;45.384;20.390;2023-07-09T02:51:12;8.68;;;4.82;;
55364;SDS011;41245;45.384;20.390;2023-07-09T02:53:38;15.23;;;5.03;;
55364;SDS011;41245;45.384;20.390;2023-07-09T02:56:04;9.23;;;4.93;;
55364;SDS011;41245;45.384;20.390;2023-07-09T02:58:30;9.02;;;4.97;;
55364;SDS011;41245;45.384;20.390;2023-07-09T03:00:56;18.00;;;5.88;;
55364;SDS011;41245;45.384;20.390;2023-07-09T03:03:22;19.77;;;5.13;;
55364;SDS011;41245;45.384;20.390;2023-07-09T03:05:48;13.40;;;5.07;;
55364;SDS011;41245;45.384;20.390;2023-07-09T03:08:14;8.75;;;4.88;;
55364;SDS011;41245;45.384;20.390;2023-07-09T03:10:41;13.93;;;5.25;;
55364;SDS011;41245;45.384;20.390;2023-07-09T03:13:07;15.68;;;5.32;;
55364;SDS011;41245;45.384;20.390;2023-07-09T03:15:33;10.15;;;4.45;;
55364;SDS011;41245;45.384;20.390;2023-07-09T03:17:59;10.40;;;5.40;;
55364;SDS011;41245;45.384;20.390;2023-07-09T03:20:25;13.55;;;5.43;;
55364;SDS011;41245;45.384;20.390;2023-07-09T03:22:51;19.15;;;5.18;;
55364;SDS011;41245;45.384;20.390;2023-07-09T03:25:17;13.93;;;5.45;;
55364;SDS011;41245;45.384;20.390;2023-07-09T03:27:43;11.48;;;5.60;;
55364;SDS011;41245;45.384;20.390;2023-07-09T03:30:09;15.50;;;5.10;;
55364;SDS011;41245;45.384;20.390;2023-07-09T03:32:35;14.80;;;4.60;;
55364;SDS011;41245;45.384;20.390;2023-07-09T03:35:01;11.70;;;5.40;;
55364;SDS011;41245;45.384;20.390;2023-07-09T03:37:27;15.05;;;4.45;;
55364;SDS011;41245;45.384;20.390;2023-07-09T03:39:53;15.88;;;5.32;;
55364;SDS011;41245;45.384;20.390;2023-07-09T03:42:19;10.10;;;5.18;;
55364;SDS011;41245;45.384;20.390;2023-07-09T03:44:46;10.90;;;5.00;;
55364;SDS011;41245;45.384;20.390;2023-07-09T03:47:12;16.40;;;5.32;;
55364;SDS011;41245;45.384;20.390;2023-07-09T03:49:38;21.73;;;6.40;;
55364;SDS011;41245;45.384;20.390;2023-07-09T03:52:06;16.98;;;5.55;;
55364;SDS011;41245;45.384;20.390;2023-07-09T03:54:32;13.50;;;6.13;;
55364;SDS011;41245;45.384;20.390;2023-07-09T03:56:58;12.02;;;5.30;;
55364;SDS011;41245;45.384;20.390;2023-07-09T03:59:25;13.02;;;5.80;;
55364;SDS011;41245;45.384;20.390;2023-07-09T04:01:51;8.20;;;4.32;;
55364;SDS011;41245;45.384;20.390;2023-07-09T04:04:16;6.15;;;4.15;;
55364;SDS011;41245;45.384;20.390;2023-07-09T04:06:45;12.75;;;3.88;;
55364;SDS011;41245;45.384;20.390;2023-07-09T04:09:11;7.20;;;3.65;;
55364;SDS011;41245;45.384;20.390;2023-07-09T04:11:37;10.45;;;3.70;;
55364;SDS011;41245;45.384;20.390;2023-07-09T04:14:03;22.48;;;5.20;;
55364;SDS011;41245;45.384;20.390;2023-07-09T04:16:29;12.70;;;3.83;;
55364;SDS011;41245;45.384;20.390;2023-07-09T04:18:54;8.50;;;3.53;;
55364;SDS011;41245;45.384;20.390;2023-07-09T04:21:20;6.40;;;3.78;;
55364;SDS011;41245;45.384;20.390;2023-07-09T04:23:46;9.25;;;3.17;;
55364;SDS011;41245;45.384;20.390;2023-07-09T04:26:12;18.38;;;4.63;;
55364;SDS011;41245;45.384;20.390;2023-07-09T04:28:39;7.65;;;4.05;;
55364;SDS011;41245;45.384;20.390;2023-07-09T04:31:04;5.13;;;3.45;;
55364;SDS011;41245;45.384;20.390;2023-07-09T04:33:30;15.48;;;3.47;;
55364;SDS011;41245;45.384;20.390;2023-07-09T04:35:56;8.77;;;3.13;;
55364;SDS011;41245;45.384;20.390;2023-07-09T04:38:22;5.65;;;3.47;;
55364;SDS011;41245;45.384;20.390;2023-07-09T04:40:48;8.68;;;3.42;;
55364;SDS011;41245;45.384;20.390;2023-07-09T04:43:14;7.30;;;3.53;;
55364;SDS011;41245;45.384;20.390;2023-07-09T04:45:40;7.13;;;3.30;;
55364;SDS011;41245;45.384;20.390;2023-07-09T04:48:06;8.68;;;3.22;;
55364;SDS011;41245;45.384;20.390;2023-07-09T04:50:32;7.95;;;3.58;;
55364;SDS011;41245;45.384;20.390;2023-07-09T04:53:01;7.40;;;4.20;;
55364;SDS011;41245;45.384;20.390;2023-07-09T04:55:27;11.57;;;3.80;;
55364;SDS011;41245;45.384;20.390;2023-07-09T04:57:53;11.23;;;4.88;;
55364;SDS011;41245;45.384;20.390;2023-07-09T05:00:19;8.70;;;3.80;;
55364;SDS011;41245;45.384;20.390;2023-07-09T05:02:45;6.80;;;3.30;;
55364;SDS011;41245;45.384;20.390;2023-07-09T05:05:11;8.68;;;3.60;;
55364;SDS011;41245;45.384;20.390;2023-07-09T05:07:37;7.85;;;3.42;;
55364;SDS011;41245;45.384;20.390;2023-07-09T05:10:04;7.82;;;3.90;;
55364;SDS011;41245;45.384;20.390;2023-07-09T05:12:30;10.73;;;4.10;;
55364;SDS011;41245;45.384;20.390;2023-07-09T05:14:57;10.43;;;5.28;;
55364;SDS011;41245;45.384;20.390;2023-07-09T05:17:23;8.77;;;4.53;;
55364;SDS011;41245;45.384;20.390;2023-07-09T05:19:49;6.47;;;4.20;;
55364;SDS011;41245;45.384;20.390;2023-07-09T05:22:17;20.73;;;4.93;;
55364;SDS011;41245;45.384;20.390;2023-07-09T05:24:43;10.05;;;4.10;;
55364;SDS011;41245;45.384;20.390;2023-07-09T05:27:09;8.48;;;4.18;;
55364;SDS011;41245;45.384;20.390;2023-07-09T05:29:35;14.27;;;3.40;;
55364;SDS011;41245;45.384;20.390;2023-07-09T05:32:01;5.22;;;3.08;;
55364;SDS011;41245;45.384;20.390;2023-07-09T05:34:27;10.20;;;3.42;;
55364;SDS011;41245;45.384;20.390;2023-07-09T05:36:53;8.48;;;3.30;;
55364;SDS011;41245;45.384;20.390;2023-07-09T05:39:19;7.15;;;3.72;;
55364;SDS011;41245;45.384;20.390;2023-07-09T05:41:45;4.72;;;3.15;;
55364;SDS011;41245;45.384;20.390;2023-07-09T05:44:11;7.05;;;2.67;;
55364;SDS011;41245;45.384;20.390;2023-07-09T05:46:37;6.03;;;3.63;;
55364;SDS011;41245;45.384;20.390;2023-07-09T05:49:04;4.95;;;2.97;;
55364;SDS011;41245;45.384;20.390;2023-07-09T05:51:30;12.02;;;2.70;;
55364;SDS011;41245;45.384;20.390;2023-07-09T05:53:56;8.38;;;2.78;;
55364;SDS011;41245;45.384;20.390;2023-07-09T05:56:22;6.68;;;2.90;;
55364;SDS011;41245;45.384;20.390;2023-07-09T05:58:47;9.95;;;2.60;;
55364;SDS011;41245;45.384;20.390;2023-07-09T06:01:13;6.68;;;2.50;;
55364;SDS011;41245;45.384;20.390;2023-07-09T06:03:39;7.95;;;3.13;;
55364;SDS011;41245;45.384;20.390;2023-07-09T06:06:05;7.60;;;2.92;;
55364;SDS011;41245;45.384;20.390;2023-07-09T06:08:31;3.03;;;2.72;;
55364;SDS011;41245;45.384;20.390;2023-07-09T06:10:59;6.13;;;2.80;;
55364;SDS011;41245;45.384;20.390;2023-07-09T06:13:27;8.65;;;3.10;;
55364;SDS011;41245;45.384;20.390;2023-07-09T06:15:56;7.57;;;2.90;;
55364;SDS011;41245;45.384;20.390;2023-07-09T06:18:22;3.63;;;2.97;;
55364;SDS011;41245;45.384;20.390;2023-07-09T06:20:50;13.68;;;3.42;;
55364;SDS011;41245;45.384;20.390;2023-07-09T06:23:17;6.57;;;2.83;;
55364;SDS011;41245;45.384;20.390;2023-07-09T06:25:44;8.45;;;3.90;;
55364;SDS011;41245;45.384;20.390;2023-07-09T06:28:17;4.88;;;2.90;;
55364;SDS011;41245;45.384;20.390;2023-07-09T06:30:44;14.88;;;3.40;;
55364;SDS011;41245;45.384;20.390;2023-07-09T06:33:11;6.80;;;3.22;;
55364;SDS011;41245;45.384;20.390;2023-07-09T06:35:38;6.05;;;2.80;;
55364;SDS011;41245;45.384;20.390;2023-07-09T06:38:04;6.10;;;2.65;;
55364;SDS011;41245;45.384;20.390;2023-07-09T06:40:31;4.95;;;2.80;;
55364;SDS011;41245;45.384;20.390;2023-07-09T06:42:56;3.65;;;2.83;;
55364;SDS011;41245;45.384;20.390;2023-07-09T06:45:23;13.50;;;3.15;;
55364;SDS011;41245;45.384;20.390;2023-07-09T06:47:49;4.57;;;2.80;;
55364;SDS011;41245;45.384;20.390;2023-07-09T06:50:15;12.20;;;3.08;;
55364;SDS011;41245;45.384;20.390;2023-07-09T06:52:41;4.35;;;2.30;;
55364;SDS011;41245;45.384;20.390;2023-07-09T06:55:07;7.70;;;2.65;;
55364;SDS011;41245;45.384;20.390;2023-07-09T06:57:33;5.82;;;2.85;;
55364;SDS011;41245;45.384;20.390;2023-07-09T06:59:59;3.70;;;2.80;;
55364;SDS011;41245;45.384;20.390;2023-07-09T07:02:25;5.70;;;2.55;;
55364;SDS011;41245;45.384;20.390;2023-07-09T07:04:51;9.95;;;2.92;;
55364;SDS011;41245;45.384;20.390;2023-07-09T07:07:16;7.18;;;2.95;;
55364;SDS011;41245;45.384;20.390;2023-07-09T07:09:42;5.55;;;2.60;;
55364;SDS011;41245;45.384;20.390;2023-07-09T07:12:08;12.40;;;3.20;;
55364;SDS011;41245;45.384;20.390;2023-07-09T07:14:34;3.25;;;2.95;;
55364;SDS011;41245;45.384;20.390;2023-07-09T07:16:59;4.68;;;2.80;;
55364;SDS011;41245;45.384;20.390;2023-07-09T07:19:26;4.05;;;2.72;;
55364;SDS011;41245;45.384;20.390;2023-07-09T07:21:52;7.03;;;3.10;;
55364;SDS011;41245;45.384;20.390;2023-07-09T07:24:18;9.65;;;2.63;;
55364;SDS011;41245;45.384;20.390;2023-07-09T07:26:43;4.40;;;3.03;;
55364;SDS011;41245;45.384;20.390;2023-07-09T07:29:09;7.38;;;3.53;;
55364;SDS011;41245;45.384;20.390;2023-07-09T07:31:35;4.82;;;3.28;;
55364;SDS011;41245;45.384;20.390;2023-07-09T07:34:00;7.45;;;3.63;;
55364;SDS011;41245;45.384;20.390;2023-07-09T07:36:26;9.25;;;3.35;;
55364;SDS011;41245;45.384;20.390;2023-07-09T07:38:52;5.28;;;3.10;;
55364;SDS011;41245;45.384;20.390;2023-07-09T07:41:18;3.25;;;2.55;;
55364;SDS011;41245;45.384;20.390;2023-07-09T07:43:43;5.50;;;2.90;;
55364;SDS011;41245;45.384;20.390;2023-07-09T07:46:09;4.13;;;2.47;;
55364;SDS011;41245;45.384;20.390;2023-07-09T07:48:35;3.97;;;2.75;;
55364;SDS011;41245;45.384;20.390;2023-07-09T07:51:01;7.53;;;2.72;;
55364;SDS011;41245;45.384;20.390;2023-07-09T07:53:28;4.00;;;2.92;;
55364;SDS011;41245;45.384;20.390;2023-07-09T07:55:55;8.45;;;3.00;;
55364;SDS011;41245;45.384;20.390;2023-07-09T07:58:22;6.30;;;3.88;;
55364;SDS011;41245;45.384;20.390;2023-07-09T08:00:48;5.47;;;2.22;;
55364;SDS011;41245;45.384;20.390;2023-07-09T08:03:14;3.00;;;2.40;;
55364;SDS011;41245;45.384;20.390;2023-07-09T08:05:40;5.65;;;3.20;;
55364;SDS011;41245;45.384;20.390;2023-07-09T08:08:06;3.60;;;2.45;;
55364;SDS011;41245;45.384;20.390;2023-07-09T08:10:31;11.82;;;2.67;;
55364;SDS011;41245;45.384;20.390;2023-07-09T08:12:57;3.33;;;2.85;;
55364;SDS011;41245;45.384;20.390;2023-07-09T08:15:27;5.47;;;2.53;;
55364;SDS011;41245;45.384;20.390;2023-07-09T08:17:53;4.18;;;2.60;;
55364;SDS011;41245;45.384;20.390;2023-07-09T08:20:18;3.38;;;2.80;;
55364;SDS011;41245;45.384;20.390;2023-07-09T08:22:44;5.10;;;2.67;;
55364;SDS011;41245;45.384;20.390;2023-07-09T08:25:11;7.60;;;2.90;;
55364;SDS011;41245;45.384;20.390;2023-07-09T08:27:37;3.10;;;2.30;;
55364;SDS011;41245;45.384;20.390;2023-07-09T08:30:03;4.47;;;2.28;;
55364;SDS011;41245;45.384;20.390;2023-07-09T08:32:29;2.88;;;2.30;;
55364;SDS011;41245;45.384;20.390;2023-07-09T08:34:55;6.40;;;3.30;;
55364;SDS011;41245;45.384;20.390;2023-07-09T08:37:20;2.78;;;2.45;;
55364;SDS011;41245;45.384;20.390;2023-07-09T08:39:46;9.93;;;3.40;;
55364;SDS011;41245;45.384;20.390;2023-07-09T08:42:14;6.15;;;2.42;;
55364;SDS011;41245;45.384;20.390;2023-07-09T08:47:42;4.22;;;2.30;;
55364;SDS011;41245;45.384;20.390;2023-07-09T08:50:17;14.65;;;2.30;;
55364;SDS011;41245;45.384;20.390;2023-07-09T08:52:47;3.10;;;2.80;;
55364;SDS011;41245;45.384;20.390;2023-07-09T08:55:16;3.05;;;2.20;;
55364;SDS011;41245;45.384;20.390;2023-07-09T08:57:48;2.88;;;2.30;;
55364;SDS011;41245;45.384;20.390;2023-07-09T09:00:18;3.60;;;2.45;;
55364;SDS011;41245;45.384;20.390;2023-07-09T09:03:00;10.52;;;2.30;;
55364;SDS011;41245;45.384;20.390;2023-07-09T09:05:31;2.58;;;2.30;;
55364;SDS011;41245;45.384;20.390;2023-07-09T09:08:43;3.20;;;1.98;;
55364;SDS011;41245;45.384;20.390;2023-07-09T09:11:07;5.15;;;2.20;;
55364;SDS011;41245;45.384;20.390;2023-07-09T09:13:46;2.65;;;2.20;;
55364;SDS011;41245;45.384;20.390;2023-07-09T09:16:35;5.40;;;2.50;;
55364;SDS011;41245;45.384;20.390;2023-07-09T09:19:05;5.65;;;2.28;;
55364;SDS011;41245;45.384;20.390;2023-07-09T09:22:04;5.25;;;2.35;;
55364;SDS011;41245;45.384;20.390;2023-07-09T09:27:20;2.58;;;2.33;;
55364;SDS011;41245;45.384;20.390;2023-07-09T09:29:46;3.05;;;2.47;;
55364;SDS011;41245;45.384;20.390;2023-07-09T09:32:35;2.85;;;2.55;;
55364;SDS011;41245;45.384;20.390;2023-07-09T09:35:11;4.78;;;2.63;;
55364;SDS011;41245;45.384;20.390;2023-07-09T09:37:38;7.32;;;2.60;;
55364;SDS011;41245;45.384;20.390;2023-07-09T09:40:04;2.30;;;2.10;;
55364;SDS011;41245;45.384;20.390;2023-07-09T09:42:33;2.20;;;2.00;;
55364;SDS011;41245;45.384;20.390;2023-07-09T09:45:00;3.63;;;2.38;;
55364;SDS011;41245;45.384;20.390;2023-07-09T09:47:26;2.65;;;2.30;;
55364;SDS011;41245;45.384;20.390;2023-07-09T09:49:53;8.82;;;2.75;;
55364;SDS011;41245;45.384;20.390;2023-07-09T09:52:19;4.13;;;2.40;;
55364;SDS011;41245;45.384;20.390;2023-07-09T09:54:52;6.38;;;2.42;;
55364;SDS011;41245;45.384;20.390;2023-07-09T09:57:22;6.10;;;2.45;;
55364;SDS011;41245;45.384;20.390;2023-07-09T09:59:49;3.38;;;2.00;;
55364;SDS011;41245;45.384;20.390;2023-07-09T10:02:20;3.42;;;2.70;;
55364;SDS011;41245;45.384;20.390;2023-07-09T10:04:48;4.20;;;2.40;;
55364;SDS011;41245;45.384;20.390;2023-07-09T10:09:52;3.67;;;2.10;;
55364;SDS011;41245;45.384;20.390;2023-07-09T10:12:31;6.32;;;2.15;;
55364;SDS011;41245;45.384;20.390;2023-07-09T10:22:28;3.28;;;2.40;;
55364;SDS011;41245;45.384;20.390;2023-07-09T10:25:02;7.22;;;3.47;;
55364;SDS011;41245;45.384;20.390;2023-07-09T10:30:41;5.32;;;2.20;;
55364;SDS011;41245;45.384;20.390;2023-07-09T10:33:11;7.85;;;2.53;;
55364;SDS011;41245;45.384;20.390;2023-07-09T10:40:59;4.85;;;2.22;;
55364;SDS011;41245;45.384;20.390;2023-07-09T10:46:11;4.20;;;2.35;;
55364;SDS011;41245;45.384;20.390;2023-07-09T10:48:43;3.42;;;2.40;;
55364;SDS011;41245;45.384;20.390;2023-07-09T10:51:22;2.75;;;2.05;;
55364;SDS011;41245;45.384;20.390;2023-07-09T10:56:28;5.10;;;2.70;;
55364;SDS011;41245;45.384;20.390;2023-07-09T11:01:40;5.07;;;2.97;;
55364;SDS011;41245;45.384;20.390;2023-07-09T11:07:06;6.55;;;5.88;;
55364;SDS011;41245;45.384;20.390;2023-07-09T11:09:44;8.02;;;2.85;;
55364;SDS011;41245;45.384;20.390;2023-07-09T11:12:13;8.60;;;2.30;;
55364;SDS011;41245;45.384;20.390;2023-07-09T11:14:51;3.22;;;1.98;;
55364;SDS011;41245;45.384;20.390;2023-07-09T11:17:21;3.25;;;2.25;;
55364;SDS011;41245;45.384;20.390;2023-07-09T11:19:49;4.30;;;2.35;;
55364;SDS011;41245;45.384;20.390;2023-07-09T11:22:26;4.35;;;2.25;;
55364;SDS011;41245;45.384;20.390;2023-07-09T11:27:46;6.10;;;2.42;;
55364;SDS011;41245;45.384;20.390;2023-07-09T11:32:45;4.03;;;2.55;;
55364;SDS011;41245;45.384;20.390;2023-07-09T11:35:21;4.25;;;2.25;;
55364;SDS011;41245;45.384;20.390;2023-07-09T11:37:48;5.03;;;4.35;;
55364;SDS011;41245;45.384;20.390;2023-07-09T11:40:15;3.13;;;2.40;;
55364;SDS011;41245;45.384;20.390;2023-07-09T11:45:26;6.05;;;2.60;;
55364;SDS011;41245;45.384;20.390;2023-07-09T11:48:06;2.83;;;2.10;;
55364;SDS011;41245;45.384;20.390;2023-07-09T11:50:47;10.73;;;2.45;;
55364;SDS011;41245;45.384;20.390;2023-07-09T11:55:58;3.00;;;2.00;;
55364;SDS011;41245;45.384;20.390;2023-07-09T11:58:24;3.20;;;2.15;;
55364;SDS011;41245;45.384;20.390;2023-07-09T12:00:51;5.15;;;2.28;;
55364;SDS011;41245;45.384;20.390;2023-07-09T12:05:51;5.30;;;2.20;;
55364;SDS011;41245;45.384;20.390;2023-07-09T12:08:26;1.92;;;1.70;;
55364;SDS011;41245;45.384;20.390;2023-07-09T12:10:56;3.90;;;1.90;;
55364;SDS011;41245;45.384;20.390;2023-07-09T12:13:21;4.07;;;1.90;;
55364;SDS011;41245;45.384;20.390;2023-07-09T12:15:47;2.40;;;2.03;;
55364;SDS011;41245;45.384;20.390;2023-07-09T12:18:14;4.18;;;2.13;;
55364;SDS011;41245;45.384;20.390;2023-07-09T12:20:41;3.38;;;2.00;;
55364;SDS011;41245;45.384;20.390;2023-07-09T12:25:53;3.30;;;1.92;;
55364;SDS011;41245;45.384;20.390;2023-07-09T12:28:20;4.40;;;2.30;;
55364;SDS011;41245;45.384;20.390;2023-07-09T12:30:47;4.53;;;2.58;;
55364;SDS011;41245;45.384;20.390;2023-07-09T12:33:26;5.57;;;2.25;;
55364;SDS011;41245;45.384;20.390;2023-07-09T12:35:57;3.80;;;2.13;;
55364;SDS011;41245;45.384;20.390;2023-07-09T12:38:25;8.05;;;2.42;;
55364;SDS011;41245;45.384;20.390;2023-07-09T12:40:53;2.38;;;2.17;;
55364;SDS011;41245;45.384;20.390;2023-07-09T12:43:28;4.55;;;2.30;;
55364;SDS011;41245;45.384;20.390;2023-07-09T12:45:57;5.43;;;2.20;;
55364;SDS011;41245;45.384;20.390;2023-07-09T12:48:25;2.80;;;2.20;;
55364;SDS011;41245;45.384;20.390;2023-07-09T12:50:55;7.27;;;2.40;;
55364;SDS011;41245;45.384;20.390;2023-07-09T12:53:23;3.90;;;2.40;;
55364;SDS011;41245;45.384;20.390;2023-07-09T12:55:57;2.00;;;1.80;;
55364;SDS011;41245;45.384;20.390;2023-07-09T12:58:27;3.53;;;2.28;;
55364;SDS011;41245;45.384;20.390;2023-07-09T13:00:55;6.63;;;2.40;;
55364;SDS011;41245;45.384;20.390;2023-07-09T13:03:24;2.83;;;2.47;;
55364;SDS011;41245;45.384;20.390;2023-07-09T13:05:59;4.80;;;2.53;;
55364;SDS011;41245;45.384;20.390;2023-07-09T13:08:30;6.82;;;2.15;;
55364;SDS011;41245;45.384;20.390;2023-07-09T13:10:59;3.53;;;2.57;;
55364;SDS011;41245;45.384;20.390;2023-07-09T13:13:25;10.30;;;2.25;;
55364;SDS011;41245;45.384;20.390;2023-07-09T13:15:55;1.83;;;1.73;;
55364;SDS011;41245;45.384;20.390;2023-07-09T13:18:24;6.85;;;2.10;;
55364;SDS011;41245;45.384;20.390;2023-07-09T13:20:50;5.53;;;2.08;;
55364;SDS011;41245;45.384;20.390;2023-07-09T13:23:19;5.95;;;2.22;;
55364;SDS011;41245;45.384;20.390;2023-07-09T13:25:49;4.72;;;2.05;;
55364;SDS011;41245;45.384;20.390;2023-07-09T13:28:21;4.32;;;2.20;;
55364;SDS011;41245;45.384;20.390;2023-07-09T13:30:53;5.95;;;2.17;;
55364;SDS011;41245;45.384;20.390;2023-07-09T13:33:44;3.53;;;2.33;;
55364;SDS011;41245;45.384;20.390;2023-07-09T13:36:17;6.78;;;3.08;;
55364;SDS011;41245;45.384;20.390;2023-07-09T13:38:43;4.30;;;3.53;;
55364;SDS011;41245;45.384;20.390;2023-07-09T13:41:13;10.30;;;4.63;;
55364;SDS011;41245;45.384;20.390;2023-07-09T13:43:45;5.00;;;2.67;;
55364;SDS011;41245;45.384;20.390;2023-07-09T13:46:12;3.38;;;1.90;;
55364;SDS011;41245;45.384;20.390;2023-07-09T13:48:39;4.32;;;2.97;;
55364;SDS011;41245;45.384;20.390;2023-07-09T13:51:27;7.88;;;3.35;;
55364;SDS011;41245;45.384;20.390;2023-07-09T13:53:53;4.60;;;2.47;;
55364;SDS011;41245;45.384;20.390;2023-07-09T13:56:21;5.50;;;2.65;;
55364;SDS011;41245;45.384;20.390;2023-07-09T13:58:47;4.22;;;2.78;;
55364;SDS011;41245;45.384;20.390;2023-07-09T14:01:15;3.63;;;3.28;;
55364;SDS011;41245;45.384;20.390;2023-07-09T14:03:45;13.48;;;4.90;;
55364;SDS011;41245;45.384;20.390;2023-07-09T14:06:14;4.10;;;2.80;;
55364;SDS011;41245;45.384;20.390;2023-07-09T14:08:41;7.78;;;3.38;;
55364;SDS011;41245;45.384;20.390;2023-07-09T14:11:10;7.50;;;2.35;;
55364;SDS011;41245;45.384;20.390;2023-07-09T14:13:40;5.43;;;4.18;;
55364;SDS011;41245;45.384;20.390;2023-07-09T14:16:08;2.83;;;2.13;;
55364;SDS011;41245;45.384;20.390;2023-07-09T14:18:36;9.15;;;2.45;;
55364;SDS011;41245;45.384;20.390;2023-07-09T14:21:06;5.82;;;2.28;;
55364;SDS011;41245;45.384;20.390;2023-07-09T14:23:39;3.58;;;2.45;;
55364;SDS011;41245;45.384;20.390;2023-07-09T14:26:05;7.05;;;2.65;;
55364;SDS011;41245;45.384;20.390;2023-07-09T14:28:30;4.28;;;1.90;;
55364;SDS011;41245;45.384;20.390;2023-07-09T14:30:56;4.25;;;2.60;;
55364;SDS011;41245;45.384;20.390;2023-07-09T14:33:22;9.15;;;2.45;;
55364;SDS011;41245;45.384;20.390;2023-07-09T14:35:48;4.32;;;2.47;;
55364;SDS011;41245;45.384;20.390;2023-07-09T14:38:15;4.18;;;2.67;;
55364;SDS011;41245;45.384;20.390;2023-07-09T14:40:45;4.97;;;2.17;;
55364;SDS011;41245;45.384;20.390;2023-07-09T14:43:12;3.65;;;2.17;;
55364;SDS011;41245;45.384;20.390;2023-07-09T14:45:39;9.23;;;3.40;;
55364;SDS011;41245;45.384;20.390;2023-07-09T14:48:12;3.95;;;3.20;;
55364;SDS011;41245;45.384;20.390;2023-07-09T14:50:39;4.80;;;2.33;;
55364;SDS011;41245;45.384;20.390;2023-07-09T14:53:24;5.45;;;2.58;;
55364;SDS011;41245;45.384;20.390;2023-07-09T14:55:51;3.20;;;2.47;;
55364;SDS011;41245;45.384;20.390;2023-07-09T14:58:18;3.35;;;2.58;;
55364;SDS011;41245;45.384;20.390;2023-07-09T15:00:45;10.13;;;2.35;;
55364;SDS011;41245;45.384;20.390;2023-07-09T15:03:15;5.88;;;2.60;;
55364;SDS011;41245;45.384;20.390;2023-07-09T15:05:47;6.50;;;2.92;;
55364;SDS011;41245;45.384;20.390;2023-07-09T15:08:14;6.55;;;2.67;;
55364;SDS011;41245;45.384;20.390;2023-07-09T15:10:42;5.30;;;2.00;;
55364;SDS011;41245;45.384;20.390;2023-07-09T15:13:30;4.72;;;2.63;;
55364;SDS011;41245;45.384;20.390;2023-07-09T15:16:00;4.78;;;2.47;;
55364;SDS011;41245;45.384;20.390;2023-07-09T15:18:27;2.72;;;2.53;;
55364;SDS011;41245;45.384;20.390;2023-07-09T15:20:57;3.50;;;2.40;;
55364;SDS011;41245;45.384;20.390;2023-07-09T15:23:24;4.90;;;2.33;;
55364;SDS011;41245;45.384;20.390;2023-07-09T15:25:52;5.82;;;3.10;;
55364;SDS011;41245;45.384;20.390;2023-07-09T15:28:17;4.80;;;2.45;;
55364;SDS011;41245;45.384;20.390;2023-07-09T15:30:43;5.22;;;2.50;;